sensor_id;sensor_type;location;lat;lon;timestamp;pressure;altitude;pressure_sealevel;temperature;humidity
77110;BME280;66062;52.464;16.922;2023-04-12T00:02:21;100113.78;;;6.29;100.00
77110;BME280;66062;52.464;16.922;2023-04-12T00:04:47;100113.91;;;6.28;100.00
77110;BME280;66062;52.464;16.922;2023-04-12T00:07:22;100105.00;;;6.29;100.00
77110;BME280;66062;52.464;16.922;2023-04-12T00:09:48;100108.47;;;6.29;100.00
77110;BME280;66062;52.464;16.922;2023-04-12T00:12:13;100114.59;;;6.30;100.00
77110;BME280;66062;52.464;16.922;2023-04-12T00:14:38;100107.97;;;6.35;100.00
77110;BME280;66062;52.464;16.922;2023-04-12T00:17:04;100112.78;;;6.30;100.00
77110;BME280;66062;52.464;16.922;2023-04-12T00:19:29;100104.25;;;6.27;100.00
77110;BME280;66062;52.464;16.922;2023-04-12T00:21:55;100108.63;;;6.17;100.00
77110;BME280;66062;52.464;16.922;2023-04-12T00:24:21;100115.34;;;6.21;100.00
77110;BME280;66062;52.464;16.922;2023-04-12T00:26:46;100111.00;;;6.20;100.00
77110;BME280;66062;52.464;16.922;2023-04-12T00:29:12;100105.00;;;6.18;100.00
77110;BME280;66062;52.464;16.922;2023-04-12T00:31:37;100107.56;;;6.19;100.00
77110;BME280;66062;52.464;16.922;2023-04-12T00:34:02;100103.59;;;6.14;100.00
77110;BME280;66062;52.464;16.922;2023-04-12T00:36:28;100109.84;;;6.13;100.00
77110;BME280;66062;52.464;16.922;2023-04-12T00:38:53;100112.13;;;6.17;100.00
77110;BME280;66062;52.464;16.922;2023-04-12T00:41:19;100106.22;;;6.14;100.00
77110;BME280;66062;52.464;16.922;2023-04-12T00:43:45;100111.66;;;6.12;100.00
77110;BME280;66062;52.464;16.922;2023-04-12T00:46:12;100116.09;;;6.12;100.00
77110;BME280;66062;52.464;16.922;2023-04-12T00:48:37;100120.19;;;6.05;100.00
77110;BME280;66062;52.464;16.922;2023-04-12T00:51:05;100107.31;;;6.11;100.00
77110;BME280;66062;52.464;16.922;2023-04-12T00:53:31;100116.47;;;6.07;100.00
77110;BME280;66062;52.464;16.922;2023-04-12T00:55:58;100108.06;;;6.02;100.00
77110;BME280;66062;52.464;16.922;2023-04-12T00:58:23;100112.63;;;6.00;100.00
77110;BME280;66062;52.464;16.922;2023-04-12T01:00:49;100106.38;;;6.01;100.00
77110;BME280;66062;52.464;16.922;2023-04-12T01:03:18;100112.03;;;5.96;100.00
77110;BME280;66062;52.464;16.922;2023-04-12T01:06:08;100116.09;;;6.12;100.00
77110;BME280;66062;52.464;16.922;2023-04-12T01:09:04;100111.06;;;6.09;100.00
77110;BME280;66062;52.464;16.922;2023-04-12T01:11:44;100116.38;;;6.09;100.00
77110;BME280;66062;52.464;16.922;2023-04-12T01:15:06;100115.63;;;6.18;100.00
77110;BME280;66062;52.464;16.922;2023-04-12T01:17:07;100115.75;;;6.05;100.00
77110;BME280;66062;52.464;16.922;2023-04-12T01:19:57;100117.59;;;5.93;100.00
77110;BME280;66062;52.464;16.922;2023-04-12T01:25:03;100121.19;;;5.92;100.00
77110;BME280;66062;52.464;16.922;2023-04-12T01:30:06;100122.28;;;5.90;100.00
77110;BME280;66062;52.464;16.922;2023-04-12T01:32:33;100118.91;;;5.88;100.00
77110;BME280;66062;52.464;16.922;2023-04-12T01:35:03;100126.56;;;5.80;100.00
77110;BME280;66062;52.464;16.922;2023-04-12T01:37:32;100127.19;;;5.94;100.00
77110;BME280;66062;52.464;16.922;2023-04-12T01:39:57;100121.66;;;5.86;100.00
77110;BME280;66062;52.464;16.922;2023-04-12T01:42:24;100119.25;;;5.72;100.00
77110;BME280;66062;52.464;16.922;2023-04-12T01:44:49;100116.97;;;5.56;100.00
77110;BME280;66062;52.464;16.922;2023-04-12T01:47:15;100113.94;;;5.50;100.00
77110;BME280;66062;52.464;16.922;2023-04-12T01:50:07;100119.38;;;5.37;100.00
77110;BME280;66062;52.464;16.922;2023-04-12T01:52:41;100114.94;;;5.38;100.00
77110;BME280;66062;52.464;16.922;2023-04-12T01:55:08;100121.66;;;5.42;100.00
77110;BME280;66062;52.464;16.922;2023-04-12T01:57:35;100125.63;;;5.36;100.00
77110;BME280;66062;52.464;16.922;2023-04-12T02:00:02;100119.72;;;5.33;100.00
77110;BME280;66062;52.464;16.922;2023-04-12T02:02:31;100120.06;;;5.39;100.00
77110;BME280;66062;52.464;16.922;2023-04-12T02:04:57;100119.47;;;5.36;100.00
77110;BME280;66062;52.464;16.922;2023-04-12T02:07:24;100123.22;;;5.33;100.00
77110;BME280;66062;52.464;16.922;2023-04-12T02:09:50;100123.34;;;5.43;100.00
77110;BME280;66062;52.464;16.922;2023-04-12T02:12:15;100118.53;;;5.48;100.00
77110;BME280;66062;52.464;16.922;2023-04-12T02:14:40;100119.38;;;5.48;100.00
77110;BME280;66062;52.464;16.922;2023-04-12T02:17:06;100116.13;;;5.45;100.00
77110;BME280;66062;52.464;16.922;2023-04-12T02:19:32;100116.84;;;5.47;100.00
77110;BME280;66062;52.464;16.922;2023-04-12T02:21:58;100118.06;;;5.43;100.00
77110;BME280;66062;52.464;16.922;2023-04-12T02:24:23;100113.72;;;5.53;100.00
77110;BME280;66062;52.464;16.922;2023-04-12T02:26:49;100112.63;;;5.55;100.00
77110;BME280;66062;52.464;16.922;2023-04-12T02:29:14;100116.13;;;5.45;100.00
77110;BME280;66062;52.464;16.922;2023-04-12T02:31:40;100120.22;;;5.38;100.00
77110;BME280;66062;52.464;16.922;2023-04-12T02:34:05;100113.47;;;5.45;100.00
77110;BME280;66062;52.464;16.922;2023-04-12T02:36:31;100102.66;;;5.37;100.00
77110;BME280;66062;52.464;16.922;2023-04-12T02:38:56;100119.72;;;5.44;100.00
77110;BME280;66062;52.464;16.922;2023-04-12T02:41:23;100109.16;;;5.33;100.00
77110;BME280;66062;52.464;16.922;2023-04-12T02:43:49;100096.75;;;5.44;100.00
77110;BME280;66062;52.464;16.922;2023-04-12T02:46:18;100100.59;;;5.29;100.00
77110;BME280;66062;52.464;16.922;2023-04-12T02:48:44;100092.66;;;5.40;100.00
77110;BME280;66062;52.464;16.922;2023-04-12T02:51:10;100098.81;;;5.41;100.00
77110;BME280;66062;52.464;16.922;2023-04-12T02:53:35;100098.06;;;5.39;100.00
77110;BME280;66062;52.464;16.922;2023-04-12T02:56:03;100102.28;;;5.30;100.00
77110;BME280;66062;52.464;16.922;2023-04-12T02:58:29;100098.09;;;5.28;100.00
77110;BME280;66062;52.464;16.922;2023-04-12T03:00:55;100097.09;;;5.29;100.00
77110;BME280;66062;52.464;16.922;2023-04-12T03:03:22;100103.00;;;5.32;100.00
77110;BME280;66062;52.464;16.922;2023-04-12T03:05:48;100098.94;;;5.28;100.00
77110;BME280;66062;52.464;16.922;2023-04-12T03:08:14;100102.75;;;5.24;100.00
77110;BME280;66062;52.464;16.922;2023-04-12T03:10:40;100095.41;;;5.16;100.00
77110;BME280;66062;52.464;16.922;2023-04-12T03:13:05;100088.56;;;5.36;100.00
77110;BME280;66062;52.464;16.922;2023-04-12T03:15:31;100081.47;;;5.26;100.00
77110;BME280;66062;52.464;16.922;2023-04-12T03:17:56;100088.94;;;5.32;100.00
77110;BME280;66062;52.464;16.922;2023-04-12T03:20:22;100081.84;;;5.32;100.00
77110;BME280;66062;52.464;16.922;2023-04-12T03:22:52;100077.25;;;5.34;100.00
77110;BME280;66062;52.464;16.922;2023-04-12T03:25:17;100074.75;;;5.33;100.00
77110;BME280;66062;52.464;16.922;2023-04-12T03:27:43;100073.78;;;5.34;100.00
77110;BME280;66062;52.464;16.922;2023-04-12T03:30:09;100074.13;;;5.29;100.00
77110;BME280;66062;52.464;16.922;2023-04-12T03:32:38;100065.59;;;5.26;100.00
77110;BME280;66062;52.464;16.922;2023-04-12T03:35:05;100068.97;;;5.28;100.00
77110;BME280;66062;52.464;16.922;2023-04-12T03:37:32;100068.97;;;5.39;100.00
77110;BME280;66062;52.464;16.922;2023-04-12T03:39:57;100066.19;;;5.40;100.00
77110;BME280;66062;52.464;16.922;2023-04-12T03:42:23;100067.03;;;5.41;100.00
77110;BME280;66062;52.464;16.922;2023-04-12T03:44:48;100067.88;;;5.41;100.00
77110;BME280;66062;52.464;16.922;2023-04-12T03:47:14;100072.34;;;5.41;100.00
77110;BME280;66062;52.464;16.922;2023-04-12T03:49:39;100068.25;;;5.37;100.00
77110;BME280;66062;52.464;16.922;2023-04-12T03:52:05;100062.47;;;5.32;100.00
77110;BME280;66062;52.464;16.922;2023-04-12T03:54:31;100068.72;;;5.31;100.00
77110;BME280;66062;52.464;16.922;2023-04-12T03:56:56;100061.25;;;5.25;100.00
77110;BME280;66062;52.464;16.922;2023-04-12T03:59:22;100069.34;;;5.23;100.00
77110;BME280;66062;52.464;16.922;2023-04-12T04:01:47;100070.41;;;5.21;100.00
77110;BME280;66062;52.464;16.922;2023-04-12T04:04:13;100080.25;;;5.18;100.00
77110;BME280;66062;52.464;16.922;2023-04-12T04:06:38;100078.09;;;5.12;100.00
77110;BME280;66062;52.464;16.922;2023-04-12T04:09:04;100077.75;;;5.17;100.00
77110;BME280;66062;52.464;16.922;2023-04-12T04:11:30;100081.84;;;5.21;100.00
77110;BME280;66062;52.464;16.922;2023-04-12T04:13:56;100077.63;;;5.30;100.00
77110;BME280;66062;52.464;16.922;2023-04-12T04:16:21;100073.06;;;5.21;100.00
77110;BME280;66062;52.464;16.922;2023-04-12T04:18:47;100072.94;;;5.22;100.00
77110;BME280;66062;52.464;16.922;2023-04-12T04:21:13;100068.50;;;5.23;100.00
77110;BME280;66062;52.464;16.922;2023-04-12T04:23:38;100070.28;;;5.22;100.00
77110;BME280;66062;52.464;16.922;2023-04-12T04:26:05;100061.63;;;5.31;100.00
77110;BME280;66062;52.464;16.922;2023-04-12T04:28:37;100061.38;;;5.34;100.00
77110;BME280;66062;52.464;16.922;2023-04-12T04:31:06;100068.47;;;5.45;100.00
77110;BME280;66062;52.464;16.922;2023-04-12T04:33:35;100072.34;;;5.52;100.00
77110;BME280;66062;52.464;16.922;2023-04-12T04:36:01;100075.84;;;5.52;100.00
77110;BME280;66062;52.464;16.922;2023-04-12T04:38:29;100071.03;;;5.46;100.00
77110;BME280;66062;52.464;16.922;2023-04-12T04:40:57;100074.03;;;5.42;100.00
77110;BME280;66062;52.464;16.922;2023-04-12T04:43:24;100077.84;;;5.49;100.00
77110;BME280;66062;52.464;16.922;2023-04-12T04:45:51;100071.38;;;5.53;100.00
77110;BME280;66062;52.464;16.922;2023-04-12T04:48:19;100072.34;;;5.63;100.00
77110;BME280;66062;52.464;16.922;2023-04-12T04:50:45;100081.59;;;5.69;100.00
77110;BME280;66062;52.464;16.922;2023-04-12T04:53:10;100085.53;;;5.74;100.00
77110;BME280;66062;52.464;16.922;2023-04-12T04:55:36;100076.91;;;5.72;100.00
77110;BME280;66062;52.464;16.922;2023-04-12T04:58:01;100077.13;;;5.69;100.00
77110;BME280;66062;52.464;16.922;2023-04-12T05:00:27;100080.03;;;5.66;100.00
77110;BME280;66062;52.464;16.922;2023-04-12T05:02:53;100088.19;;;5.74;100.00
77110;BME280;66062;52.464;16.922;2023-04-12T05:05:18;100082.81;;;5.87;100.00
77110;BME280;66062;52.464;16.922;2023-04-12T05:07:47;100093.00;;;5.80;100.00
77110;BME280;66062;52.464;16.922;2023-04-12T05:10:12;100085.44;;;5.87;100.00
77110;BME280;66062;52.464;16.922;2023-04-12T05:12:38;100086.50;;;5.95;100.00
77110;BME280;66062;52.464;16.922;2023-04-12T05:15:06;100089.16;;;5.95;100.00
77110;BME280;66062;52.464;16.922;2023-04-12T05:17:31;100084.84;;;5.83;100.00
77110;BME280;66062;52.464;16.922;2023-04-12T05:19:59;100091.78;;;5.84;100.00
77110;BME280;66062;52.464;16.922;2023-04-12T05:22:24;100088.00;;;5.88;100.00
77110;BME280;66062;52.464;16.922;2023-04-12T05:24:50;100088.66;;;6.01;100.00
77110;BME280;66062;52.464;16.922;2023-04-12T05:27:16;100089.41;;;5.92;100.00
77110;BME280;66062;52.464;16.922;2023-04-12T05:29:43;100086.03;;;5.90;100.00
77110;BME280;66062;52.464;16.922;2023-04-12T05:32:09;100089.50;;;6.02;100.00
77110;BME280;66062;52.464;16.922;2023-04-12T05:34:35;100092.63;;;6.07;100.00
77110;BME280;66062;52.464;16.922;2023-04-12T05:37:01;100081.28;;;6.16;100.00
77110;BME280;66062;52.464;16.922;2023-04-12T05:39:27;100081.63;;;6.23;100.00
77110;BME280;66062;52.464;16.922;2023-04-12T05:41:53;100088.69;;;6.44;100.00
77110;BME280;66062;52.464;16.922;2023-04-12T05:44:18;100083.31;;;6.56;99.85
77110;BME280;66062;52.464;16.922;2023-04-12T05:46:44;100071.28;;;6.72;98.70
77110;BME280;66062;52.464;16.922;2023-04-12T05:49:09;100072.66;;;6.87;99.12
77110;BME280;66062;52.464;16.922;2023-04-12T05:51:35;100070.00;;;7.08;96.45
77110;BME280;66062;52.464;16.922;2023-04-12T05:54:00;100069.72;;;7.11;95.30
77110;BME280;66062;52.464;16.922;2023-04-12T05:56:25;100068.13;;;7.20;94.98
77110;BME280;66062;52.464;16.922;2023-04-12T05:58:51;100060.97;;;7.41;94.18
77110;BME280;66062;52.464;16.922;2023-04-12T06:01:16;100073.25;;;7.42;93.97
77110;BME280;66062;52.464;16.922;2023-04-12T06:03:44;100062.38;;;7.45;92.97
77110;BME280;66062;52.464;16.922;2023-04-12T06:06:10;100061.44;;;7.56;92.84
77110;BME280;66062;52.464;16.922;2023-04-12T06:08:36;100066.31;;;7.51;92.57
77110;BME280;66062;52.464;16.922;2023-04-12T06:11:03;100061.28;;;7.57;93.18
77110;BME280;66062;52.464;16.922;2023-04-12T06:13:29;100061.16;;;7.59;91.93
77110;BME280;66062;52.464;16.922;2023-04-12T06:15:54;100060.06;;;7.61;92.21
77110;BME280;66062;52.464;16.922;2023-04-12T06:18:20;100062.75;;;7.71;92.86
77110;BME280;66062;52.464;16.922;2023-04-12T06:20:45;100054.38;;;7.76;92.64
77110;BME280;66062;52.464;16.922;2023-04-12T06:23:11;100050.34;;;7.91;92.28
77110;BME280;66062;52.464;16.922;2023-04-12T06:25:36;100048.66;;;7.40;94.82
77110;BME280;66062;52.464;16.922;2023-04-12T06:28:03;100054.31;;;7.56;95.03
77110;BME280;66062;52.464;16.922;2023-04-12T06:30:28;100046.28;;;7.77;92.47
77110;BME280;66062;52.464;16.922;2023-04-12T06:32:54;100048.09;;;7.77;92.19
77110;BME280;66062;52.464;16.922;2023-04-12T06:35:21;100052.34;;;7.58;93.21
77110;BME280;66062;52.464;16.922;2023-04-12T06:37:46;100047.94;;;7.78;92.67
77110;BME280;66062;52.464;16.922;2023-04-12T06:40:12;100048.22;;;7.85;93.59
77110;BME280;66062;52.464;16.922;2023-04-12T06:42:37;100050.91;;;7.94;91.84
77110;BME280;66062;52.464;16.922;2023-04-12T06:45:03;100053.25;;;7.78;92.37
77110;BME280;66062;52.464;16.922;2023-04-12T06:47:30;100049.47;;;7.71;92.45
77110;BME280;66062;52.464;16.922;2023-04-12T06:49:56;100045.53;;;7.65;93.24
77110;BME280;66062;52.464;16.922;2023-04-12T06:52:25;100053.03;;;7.51;93.59
77110;BME280;66062;52.464;16.922;2023-04-12T06:54:52;100045.09;;;7.60;93.77
77110;BME280;66062;52.464;16.922;2023-04-12T06:57:17;100040.97;;;7.87;91.70
77110;BME280;66062;52.464;16.922;2023-04-12T06:59:43;100045.16;;;7.80;92.10
77110;BME280;66062;52.464;16.922;2023-04-12T07:02:08;100046.72;;;7.82;92.05
77110;BME280;66062;52.464;16.922;2023-04-12T07:04:34;100042.09;;;7.94;91.57
77110;BME280;66062;52.464;16.922;2023-04-12T07:07:00;100044.59;;;7.86;93.11
77110;BME280;66062;52.464;16.922;2023-04-12T07:09:25;100050.50;;;8.08;90.77
77110;BME280;66062;52.464;16.922;2023-04-12T07:11:51;100043.44;;;8.38;89.43
77110;BME280;66062;52.464;16.922;2023-04-12T07:14:17;100040.38;;;8.52;88.69
77110;BME280;66062;52.464;16.922;2023-04-12T07:16:43;100034.53;;;7.80;91.80
77110;BME280;66062;52.464;16.922;2023-04-12T07:19:08;100032.91;;;8.17;91.53
77110;BME280;66062;52.464;16.922;2023-04-12T07:21:33;100036.03;;;8.41;89.03
77110;BME280;66062;52.464;16.922;2023-04-12T07:23:59;100028.47;;;8.56;89.00
77110;BME280;66062;52.464;16.922;2023-04-12T07:26:25;100028.59;;;8.54;87.90
77110;BME280;66062;52.464;16.922;2023-04-12T07:28:51;100019.72;;;8.92;86.56
77110;BME280;66062;52.464;16.922;2023-04-12T07:31:16;100023.69;;;8.50;89.17
77110;BME280;66062;52.464;16.922;2023-04-12T07:33:42;100024.50;;;8.70;89.34
77110;BME280;66062;52.464;16.922;2023-04-12T07:36:08;100024.19;;;8.92;86.86
77110;BME280;66062;52.464;16.922;2023-04-12T07:38:33;100019.56;;;9.04;85.63
77110;BME280;66062;52.464;16.922;2023-04-12T07:40:59;100010.28;;;9.44;84.41
77110;BME280;66062;52.464;16.922;2023-04-12T07:43:24;100005.47;;;11.33;77.52
77110;BME280;66062;52.464;16.922;2023-04-12T07:45:50;99996.69;;;13.28;68.22
77110;BME280;66062;52.464;16.922;2023-04-12T07:48:16;99979.16;;;13.88;63.76
77110;BME280;66062;52.464;16.922;2023-04-12T07:50:41;99978.28;;;13.09;66.00
77110;BME280;66062;52.464;16.922;2023-04-12T07:53:22;99980.69;;;12.07;70.34
77110;BME280;66062;52.464;16.922;2023-04-12T07:55:49;99984.84;;;12.10;71.04
77110;BME280;66062;52.464;16.922;2023-04-12T07:58:16;99994.50;;;11.78;71.22
77110;BME280;66062;52.464;16.922;2023-04-12T08:00:42;100002.97;;;12.24;70.10
77110;BME280;66062;52.464;16.922;2023-04-12T08:03:10;99997.56;;;12.08;69.81
77110;BME280;66062;52.464;16.922;2023-04-12T08:05:39;100001.25;;;12.07;69.77
77110;BME280;66062;52.464;16.922;2023-04-12T08:08:05;100001.34;;;10.61;76.37
77110;BME280;66062;52.464;16.922;2023-04-12T08:10:31;99996.56;;;10.91;75.70
77110;BME280;66062;52.464;16.922;2023-04-12T08:12:57;100003.84;;;10.63;77.47
77110;BME280;66062;52.464;16.922;2023-04-12T08:15:22;100011.75;;;10.72;74.86
77110;BME280;66062;52.464;16.922;2023-04-12T08:17:48;100000.66;;;10.59;75.13
77110;BME280;66062;52.464;16.922;2023-04-12T08:20:13;99998.00;;;10.42;76.24
77110;BME280;66062;52.464;16.922;2023-04-12T08:22:43;99998.50;;;10.63;75.10
77110;BME280;66062;52.464;16.922;2023-04-12T08:25:09;100002.41;;;10.68;74.87
77110;BME280;66062;52.464;16.922;2023-04-12T08:27:35;100008.69;;;9.79;77.25
77110;BME280;66062;52.464;16.922;2023-04-12T08:30:01;99999.25;;;10.29;76.51
77110;BME280;66062;52.464;16.922;2023-04-12T08:32:27;99995.69;;;10.11;78.14
77110;BME280;66062;52.464;16.922;2023-04-12T08:34:52;100004.38;;;10.13;77.04
77110;BME280;66062;52.464;16.922;2023-04-12T08:37:18;99997.53;;;11.15;72.80
77110;BME280;66062;52.464;16.922;2023-04-12T08:39:43;99994.22;;;11.64;71.45
77110;BME280;66062;52.464;16.922;2023-04-12T08:42:09;99985.81;;;11.84;70.26
77110;BME280;66062;52.464;16.922;2023-04-12T08:44:38;99980.97;;;13.09;64.84
77110;BME280;66062;52.464;16.922;2023-04-12T08:47:05;99970.69;;;15.49;56.29
77110;BME280;66062;52.464;16.922;2023-04-12T08:49:32;99962.78;;;17.10;51.24
77110;BME280;66062;52.464;16.922;2023-04-12T08:52:05;99968.41;;;16.39;52.33
77110;BME280;66062;52.464;16.922;2023-04-12T08:54:32;99963.25;;;17.21;49.81
77110;BME280;66062;52.464;16.922;2023-04-12T08:57:00;99958.66;;;17.56;50.70
77110;BME280;66062;52.464;16.922;2023-04-12T08:59:27;99962.63;;;15.99;54.86
77110;BME280;66062;52.464;16.922;2023-04-12T09:01:54;99963.09;;;16.24;53.73
77110;BME280;66062;52.464;16.922;2023-04-12T09:04:20;99943.38;;;18.56;49.67
77110;BME280;66062;52.464;16.922;2023-04-12T09:06:45;99946.16;;;17.82;50.61
77110;BME280;66062;52.464;16.922;2023-04-12T09:09:11;99951.06;;;15.84;55.81
77110;BME280;66062;52.464;16.922;2023-04-12T09:11:36;99948.31;;;14.75;57.01
77110;BME280;66062;52.464;16.922;2023-04-12T09:14:02;99949.28;;;14.96;55.67
77110;BME280;66062;52.464;16.922;2023-04-12T09:16:34;99948.88;;;15.73;50.90
77110;BME280;66062;52.464;16.922;2023-04-12T09:18:59;99940.44;;;18.51;43.58
77110;BME280;66062;52.464;16.922;2023-04-12T09:21:27;99936.25;;;16.80;45.76
77110;BME280;66062;52.464;16.922;2023-04-12T09:24:07;99940.16;;;16.77;47.19
77110;BME280;66062;52.464;16.922;2023-04-12T09:26:37;99940.94;;;16.50;48.21
77110;BME280;66062;52.464;16.922;2023-04-12T09:29:03;99932.75;;;15.58;50.61
77110;BME280;66062;52.464;16.922;2023-04-12T09:31:29;99938.97;;;14.02;55.85
77110;BME280;66062;52.464;16.922;2023-04-12T09:34:15;99934.22;;;13.90;56.37
77110;BME280;66062;52.464;16.922;2023-04-12T09:36:41;99931.13;;;14.01;55.59
77110;BME280;66062;52.464;16.922;2023-04-12T09:39:07;99941.69;;;12.77;57.29
77110;BME280;66062;52.464;16.922;2023-04-12T09:41:33;99936.66;;;12.82;58.29
77110;BME280;66062;52.464;16.922;2023-04-12T09:43:59;99930.44;;;12.90;60.08
77110;BME280;66062;52.464;16.922;2023-04-12T09:46:25;99932.00;;;12.76;59.86
77110;BME280;66062;52.464;16.922;2023-04-12T09:48:52;99920.16;;;12.14;61.24
77110;BME280;66062;52.464;16.922;2023-04-12T09:51:33;99925.34;;;11.99;60.87
77110;BME280;66062;52.464;16.922;2023-04-12T09:54:02;99929.03;;;11.40;63.33
77110;BME280;66062;52.464;16.922;2023-04-12T09:56:30;99930.22;;;11.46;65.55
77110;BME280;66062;52.464;16.922;2023-04-12T09:58:59;99918.69;;;11.53;64.88
77110;BME280;66062;52.464;16.922;2023-04-12T10:01:26;99925.63;;;10.88;66.35
77110;BME280;66062;52.464;16.922;2023-04-12T10:03:53;99916.47;;;10.65;69.03
77110;BME280;66062;52.464;16.922;2023-04-12T10:06:20;99916.72;;;10.80;69.13
77110;BME280;66062;52.464;16.922;2023-04-12T10:08:51;99914.31;;;10.94;69.19
77110;BME280;66062;52.464;16.922;2023-04-12T10:11:16;99901.94;;;10.93;69.33
77110;BME280;66062;52.464;16.922;2023-04-12T10:13:43;99907.69;;;11.56;67.35
77110;BME280;66062;52.464;16.922;2023-04-12T10:16:09;99907.91;;;11.21;69.02
77110;BME280;66062;52.464;16.922;2023-04-12T10:18:36;99901.09;;;11.77;66.43
77110;BME280;66062;52.464;16.922;2023-04-12T10:21:03;99897.22;;;11.79;65.62
77110;BME280;66062;52.464;16.922;2023-04-12T10:23:31;99896.47;;;11.53;65.28
77110;BME280;66062;52.464;16.922;2023-04-12T10:25:57;99891.25;;;11.93;62.91
77110;BME280;66062;52.464;16.922;2023-04-12T10:28:23;99887.75;;;12.17;64.51
77110;BME280;66062;52.464;16.922;2023-04-12T10:30:49;99882.53;;;11.75;65.66
77110;BME280;66062;52.464;16.922;2023-04-12T10:33:16;99881.91;;;12.14;63.03
77110;BME280;66062;52.464;16.922;2023-04-12T10:38:25;99885.66;;;11.71;63.33
77110;BME280;66062;52.464;16.922;2023-04-12T10:43:36;99870.75;;;11.44;66.46
77110;BME280;66062;52.464;16.922;2023-04-12T10:46:02;99869.34;;;11.24;67.10
77110;BME280;66062;52.464;16.922;2023-04-12T10:48:38;99872.44;;;10.95;66.18
77110;BME280;66062;52.464;16.922;2023-04-12T10:53:43;99869.75;;;10.61;67.42
77110;BME280;66062;52.464;16.922;2023-04-12T10:56:36;99873.94;;;10.97;67.66
77110;BME280;66062;52.464;16.922;2023-04-12T10:59:04;99870.44;;;11.47;64.80
77110;BME280;66062;52.464;16.922;2023-04-12T11:01:30;99861.59;;;10.96;64.73
77110;BME280;66062;52.464;16.922;2023-04-12T11:04:17;99864.16;;;11.14;65.77
77110;BME280;66062;52.464;16.922;2023-04-12T11:09:37;99850.13;;;12.11;59.50
77110;BME280;66062;52.464;16.922;2023-04-12T11:19:39;99845.88;;;11.51;59.98
77110;BME280;66062;52.464;16.922;2023-04-12T11:22:07;99849.31;;;11.11;62.06
77110;BME280;66062;52.464;16.922;2023-04-12T11:24:37;99846.78;;;11.10;61.99
77110;BME280;66062;52.464;16.922;2023-04-12T11:27:03;99843.69;;;11.31;61.67
77110;BME280;66062;52.464;16.922;2023-04-12T11:29:29;99839.66;;;11.35;62.33
77110;BME280;66062;52.464;16.922;2023-04-12T11:31:57;99845.00;;;11.35;62.45
77110;BME280;66062;52.464;16.922;2023-04-12T11:34:23;99832.00;;;11.40;62.81
77110;BME280;66062;52.464;16.922;2023-04-12T11:36:52;99830.84;;;11.50;63.36
77110;BME280;66062;52.464;16.922;2023-04-12T11:39:19;99832.66;;;11.34;63.09
77110;BME280;66062;52.464;16.922;2023-04-12T11:41:46;99831.84;;;11.41;62.86
77110;BME280;66062;52.464;16.922;2023-04-12T11:44:12;99834.16;;;11.36;63.68
77110;BME280;66062;52.464;16.922;2023-04-12T11:46:38;99824.63;;;11.34;63.57
77110;BME280;66062;52.464;16.922;2023-04-12T11:49:03;99824.78;;;11.24;64.47
77110;BME280;66062;52.464;16.922;2023-04-12T11:51:30;99822.00;;;11.50;64.34
77110;BME280;66062;52.464;16.922;2023-04-12T11:53:57;99817.31;;;11.44;63.72
77110;BME280;66062;52.464;16.922;2023-04-12T11:56:23;99816.22;;;11.04;64.29
77110;BME280;66062;52.464;16.922;2023-04-12T11:58:49;99820.13;;;11.26;64.68
77110;BME280;66062;52.464;16.922;2023-04-12T12:01:16;99817.94;;;11.22;64.95
77110;BME280;66062;52.464;16.922;2023-04-12T12:03:43;99804.78;;;11.36;64.34
77110;BME280;66062;52.464;16.922;2023-04-12T12:06:09;99802.13;;;11.61;64.06
77110;BME280;66062;52.464;16.922;2023-04-12T12:08:38;99801.16;;;11.86;62.33
77110;BME280;66062;52.464;16.922;2023-04-12T12:11:04;99796.44;;;12.28;61.30
77110;BME280;66062;52.464;16.922;2023-04-12T12:13:47;99793.16;;;12.57;60.44
77110;BME280;66062;52.464;16.922;2023-04-12T12:16:13;99782.09;;;12.60;58.83
77110;BME280;66062;52.464;16.922;2023-04-12T12:18:39;99780.34;;;12.83;59.36
77110;BME280;66062;52.464;16.922;2023-04-12T12:21:08;99771.50;;;13.37;57.72
77110;BME280;66062;52.464;16.922;2023-04-12T12:23:34;99773.13;;;14.94;52.90
77110;BME280;66062;52.464;16.922;2023-04-12T12:26:01;99750.47;;;16.78;49.11
77110;BME280;66062;52.464;16.922;2023-04-12T12:28:39;99747.13;;;16.35;48.75
77110;BME280;66062;52.464;16.922;2023-04-12T12:31:06;99748.03;;;17.70;43.41
77110;BME280;66062;52.464;16.922;2023-04-12T12:33:38;99759.16;;;15.41;48.09
77110;BME280;66062;52.464;16.922;2023-04-12T12:36:08;99753.41;;;14.28;51.72
77110;BME280;66062;52.464;16.922;2023-04-12T12:38:41;99751.69;;;12.53;57.54
77110;BME280;66062;52.464;16.922;2023-04-12T12:43:45;99731.09;;;14.13;53.33
77110;BME280;66062;52.464;16.922;2023-04-12T12:46:10;99730.34;;;15.77;48.98
77110;BME280;66062;52.464;16.922;2023-04-12T12:48:43;99731.50;;;15.47;48.25
77110;BME280;66062;52.464;16.922;2023-04-12T12:51:10;99729.91;;;15.31;48.36
77110;BME280;66062;52.464;16.922;2023-04-12T12:53:37;99723.16;;;14.34;51.85
77110;BME280;66062;52.464;16.922;2023-04-12T12:56:03;99717.63;;;15.22;50.41
77110;BME280;66062;52.464;16.922;2023-04-12T12:58:29;99721.38;;;15.70;49.17
77110;BME280;66062;52.464;16.922;2023-04-12T13:00:54;99721.00;;;15.73;48.43
77110;BME280;66062;52.464;16.922;2023-04-12T13:03:20;99711.13;;;15.53;48.88
77110;BME280;66062;52.464;16.922;2023-04-12T13:05:46;99711.97;;;16.15;49.74
77110;BME280;66062;52.464;16.922;2023-04-12T13:08:12;99706.00;;;17.15;46.26
77110;BME280;66062;52.464;16.922;2023-04-12T13:10:37;99697.75;;;17.56;42.40
77110;BME280;66062;52.464;16.922;2023-04-12T13:13:02;99697.66;;;16.97;43.87